createdAt,value
2023-03-13T12:56:44.551Z,67.86
2023-03-13T12:57:44.538Z,68.24
2023-03-13T12:58:44.443Z,68.53
2023-03-13T12:59:44.479Z,68.73
2023-03-13T13:00:44.387Z,69.2
2023-03-13T13:01:44.630Z,69.2
2023-03-13T13:02:44.344Z,69.49
2023-03-13T13:03:44.335Z,69.49
2023-03-13T13:04:44.216Z,69.2
2023-03-13T13:05:44.269Z,69.2
2023-03-13T13:06:44.245Z,69.2
2023-03-13T13:07:44.226Z,69.2
2023-03-13T13:08:44.281Z,69.2
2023-03-13T13:09:44.182Z,69.01
2023-03-13T13:10:44.163Z,68.73
2023-03-13T13:11:44.145Z,68.82
2023-03-13T13:12:44.203Z,68.53
2023-03-13T13:13:44.090Z,68.91
2023-03-13T13:14:44.064Z,69.3
2023-03-13T13:15:44.104Z,68.82
2023-03-13T13:16:44.020Z,68.63
2023-03-13T13:17:44.002Z,68.73
2023-03-13T13:18:43.744Z,69.11
2023-03-13T13:19:43.971Z,69.3
2023-03-13T13:20:43.714Z,69.49
2023-03-13T13:21:43.677Z,69.4
2023-03-13T13:22:43.927Z,69.49
2023-03-13T13:23:43.874Z,69.87
2023-03-13T13:24:43.884Z,69.97
2023-03-13T13:25:43.832Z,69.4
2023-03-13T13:26:43.797Z,70.07
2023-03-13T13:27:43.782Z,69.68
2023-03-13T13:28:44.041Z,69.49
2023-03-13T13:29:43.495Z,69.2
2023-03-13T13:30:43.966Z,69.11
2023-03-13T13:31:43.947Z,69.78
2023-03-13T13:32:43.826Z,69.93
2023-03-13T13:33:43.675Z,69.87
2023-03-13T13:34:43.629Z,69.4
2023-03-13T13:35:43.729Z,69.01
2023-03-13T13:36:43.617Z,69.11
2023-03-13T13:37:43.582Z,69.3
2023-03-13T13:38:43.638Z,69.3
2023-03-13T13:39:43.686Z,68.73
2023-03-13T13:40:43.516Z,68.44
2023-03-13T13:41:43.596Z,68.44
2023-03-13T13:42:43.465Z,68.53
2023-03-13T13:43:43.528Z,68.15
2023-03-13T13:44:43.541Z,68.44
2023-03-13T13:45:43.391Z,68.53
2023-03-13T13:46:43.608Z,67.96
2023-03-13T13:47:43.351Z,68.24
2023-03-13T13:48:43.347Z,68.44
2023-03-13T13:49:43.060Z,68.82
2023-03-13T13:50:43.283Z,68.63
2023-03-13T13:51:43.258Z,68.82
2023-03-13T13:52:43.236Z,69.59
2023-03-13T13:53:43.216Z,69.59
2023-03-13T13:54:43.207Z,69.46
2023-03-13T13:55:43.175Z,69.56
2023-03-13T13:56:42.980Z,69.65
2023-03-13T13:57:43.128Z,69.3
2023-03-13T13:58:43.106Z,69.59
2023-03-13T13:59:43.244Z,69.4
2023-03-13T14:00:43.137Z,70.36
2023-03-13T14:01:43.247Z,69.84
2023-03-13T14:02:43.014Z,69.93
2023-03-13T14:03:43.003Z,69.93
2023-03-13T14:04:43.175Z,69.74
2023-03-13T14:05:42.951Z,69.17
2023-03-13T14:06:42.933Z,69.56
2023-03-13T14:07:43.309Z,69.56
2023-03-13T14:08:42.980Z,69.84
2023-03-13T14:09:42.861Z,69.56
2023-03-13T14:10:42.888Z,69.65
2023-03-13T14:11:42.828Z,69.46
2023-03-13T14:12:42.828Z,69.56
2023-03-13T14:13:42.825Z,69.46
2023-03-13T14:14:42.760Z,69.74
2023-03-13T14:15:42.824Z,69.56
2023-03-13T14:16:42.873Z,69.17
2023-03-13T14:17:42.695Z,69.11
2023-03-13T14:18:42.790Z,68.63
2023-03-13T14:19:42.648Z,68.63
2023-03-13T14:20:42.622Z,68.63
2023-03-13T14:21:42.606Z,68.59
2023-03-13T14:22:42.338Z,68.44
2023-03-13T14:23:42.642Z,68.79
2023-03-13T14:24:42.543Z,68.79
2023-03-13T14:25:42.517Z,68.98
2023-03-13T14:26:42.493Z,69.17
2023-03-13T14:27:42.481Z,69.07
2023-03-13T14:28:42.471Z,69.46
2023-03-13T14:29:42.424Z,69.17
2023-03-13T14:30:42.461Z,69.74
2023-03-13T14:31:42.549Z,69.36
2023-03-13T14:32:42.523Z,69.93
2023-03-13T14:33:42.352Z,70.42
2023-03-13T14:34:42.338Z,70.8
2023-03-13T14:35:42.362Z,70.99
2023-03-13T14:36:42.269Z,71.05
2023-03-13T14:37:42.256Z,70.57
2023-03-13T14:38:42.254Z,71.05
2023-03-13T14:39:42.212Z,71.15
2023-03-13T14:40:42.191Z,71.05
2023-03-13T14:41:42.179Z,71.19
2023-03-13T14:42:42.136Z,70.99
2023-03-13T14:43:42.113Z,71.37
2023-03-13T14:44:42.088Z,70.8
2023-03-13T14:45:42.072Z,71.19
2023-03-13T14:46:42.179Z,70.8
2023-03-13T14:47:42.024Z,70.7
2023-03-13T14:48:42.136Z,70.61
2023-03-13T14:49:41.986Z,70.99
2023-03-13T14:50:41.953Z,70.7
2023-03-13T14:51:41.940Z,71.09
2023-03-13T14:52:41.936Z,71.09
2023-03-13T14:53:41.913Z,71.28
2023-03-13T14:54:41.871Z,71.19
2023-03-13T14:55:41.844Z,70.51
2023-03-13T14:56:41.817Z,70.7
2023-03-13T14:57:41.795Z,70.7
2023-03-13T14:58:41.532Z,70.7
2023-03-13T14:59:41.769Z,71.09
2023-03-13T15:00:41.812Z,70.99
2023-03-13T15:01:41.706Z,71.82
2023-03-13T15:02:41.684Z,71.63
2023-03-13T15:03:41.672Z,71.44
2023-03-13T15:04:41.836Z,71.63
2023-03-13T15:05:41.623Z,71.44
2023-03-13T15:06:41.753Z,71.82
2023-03-13T15:07:41.586Z,71.44
2023-03-13T15:08:41.542Z,71.34
2023-03-13T15:09:41.523Z,72.3
2023-03-13T15:10:41.510Z,72.2
2023-03-13T15:11:41.487Z,71.44
2023-03-13T15:12:41.456Z,71.82
2023-03-13T15:13:41.533Z,71.63
2023-03-13T15:14:41.428Z,72.11
2023-03-13T15:15:41.392Z,71.63
2023-03-13T15:16:41.474Z,72.3
2023-03-13T15:17:41.346Z,72.39
2023-03-13T15:18:41.330Z,72.39
2023-03-13T15:19:41.308Z,72.3
2023-03-13T15:20:41.347Z,72.2
2023-03-13T15:21:41.251Z,72.97
2023-03-13T15:22:41.225Z,72.68
2023-03-13T15:23:41.213Z,72.78
2023-03-13T15:24:41.181Z,72.84
2023-03-13T15:25:41.174Z,72.74
2023-03-13T15:26:41.131Z,72.64
2023-03-13T15:27:41.122Z,72.84
2023-03-13T15:28:41.091Z,73.41
2023-03-13T15:29:41.073Z,73.32
2023-03-13T15:30:41.050Z,73.03
2023-03-13T15:31:41.156Z,73.61
2023-03-13T15:32:41.190Z,73.41
2023-03-13T15:33:40.986Z,73.22
2023-03-13T15:34:40.970Z,73.41
2023-03-13T15:35:41.120Z,73.32
2023-03-13T15:36:40.974Z,73.51
2023-03-13T15:37:40.894Z,73.41
2023-03-13T15:38:40.864Z,73.41
2023-03-13T15:39:40.844Z,73.03
2023-03-13T15:40:40.811Z,72.55
2023-03-13T15:41:40.802Z,72.74
2023-03-13T15:42:40.767Z,72.27
2023-03-13T15:43:40.829Z,72.36
2023-03-13T15:44:40.721Z,72.36
2023-03-13T15:45:40.821Z,71.78
2023-03-13T15:46:40.677Z,71.4
2023-03-13T15:47:40.669Z,71.59
2023-03-13T15:48:40.656Z,70.73
2023-03-13T15:49:40.595Z,70.64
2023-03-13T15:50:40.605Z,69.87
2023-03-13T15:51:40.557Z,69.13
2023-03-13T15:52:40.575Z,69.04
2023-03-13T15:53:40.503Z,69.33
2023-03-13T15:54:40.480Z,68.75
2023-03-13T15:55:40.462Z,69.13
2023-03-13T15:56:40.431Z,69.04
2023-03-13T15:57:40.420Z,69.29
2023-03-13T15:58:40.406Z,69.58
2023-03-13T15:59:40.371Z,69.01
2023-03-13T16:00:40.340Z,69.01
2023-03-13T16:01:40.528Z,68.81
2023-03-13T16:02:40.298Z,69.2
2023-03-13T16:03:40.278Z,69.2
2023-03-13T16:04:40.523Z,69.2
2023-03-13T16:05:40.220Z,68.66
2023-03-13T16:06:39.962Z,68.46
2023-03-13T16:07:40.173Z,68.85
2023-03-13T16:08:40.365Z,68.27
2023-03-13T16:09:40.186Z,68.37
2023-03-13T16:10:40.109Z,68.27
2023-03-13T16:11:40.081Z,68.18
2023-03-13T16:12:40.080Z,68.37
2023-03-13T16:13:40.055Z,67.89
2023-03-13T16:14:40.043Z,67.22
2023-03-13T16:15:39.994Z,67.32
2023-03-13T16:16:40.621Z,67.41
2023-03-13T16:17:39.971Z,67.22
2023-03-13T16:18:39.916Z,67.6
2023-03-13T16:19:39.900Z,67.41
2023-03-13T16:20:39.885Z,67.6
2023-03-13T16:21:39.850Z,67.32
2023-03-13T16:22:39.850Z,67.12
2023-03-13T16:23:39.823Z,67.69
2023-03-13T16:24:39.986Z,67.69
2023-03-13T16:25:40.715Z,67.95
2023-03-13T16:26:39.727Z,68.05
2023-03-13T16:27:39.709Z,68.24
2023-03-13T16:28:39.681Z,68.43
2023-03-13T16:29:39.672Z,68.72
2023-03-13T16:30:39.636Z,68.62
2023-03-13T16:31:39.868Z,68.24
2023-03-13T16:32:39.748Z,68.05
2023-03-13T16:33:39.568Z,67.95
2023-03-13T16:34:39.542Z,68.62
2023-03-13T16:35:39.636Z,68.52
2023-03-13T16:36:39.492Z,68.52
2023-03-13T16:37:39.470Z,69.29
2023-03-13T16:38:39.213Z,69.1
2023-03-13T16:39:39.185Z,70.21
2023-03-13T16:40:39.465Z,69.83
2023-03-13T16:41:39.375Z,70.31
2023-03-13T16:42:39.343Z,71.08
2023-03-13T16:43:39.320Z,70.79
2023-03-13T16:44:39.308Z,70.98
2023-03-13T16:45:39.278Z,71.56
2023-03-13T16:46:39.453Z,71.33
2023-03-13T16:47:39.231Z,72.19
2023-03-13T16:48:39.207Z,72.09
2023-03-13T16:49:39.179Z,72.86
2023-03-13T16:50:39.157Z,72.48
2023-03-13T16:51:39.142Z,72.96
2023-03-13T16:52:39.104Z,72.77
2023-03-13T16:53:39.083Z,73.15
2023-03-13T16:54:39.049Z,73.24
2023-03-13T16:55:39.424Z,73.54
2023-03-13T16:56:39.055Z,73.63
2023-03-13T16:57:38.986Z,74.11
2023-03-13T16:58:38.950Z,73.69
2023-03-13T16:59:38.957Z,74.45
2023-03-13T17:00:38.927Z,74.65
2023-03-13T17:01:38.879Z,74.45
2023-03-13T17:02:39.111Z,74.84
2023-03-13T17:03:38.837Z,74.84
2023-03-13T17:04:38.958Z,74.84
2023-03-13T17:05:38.781Z,74.74
2023-03-13T17:06:38.763Z,75.12
2023-03-13T17:07:38.730Z,74.93
2023-03-13T17:08:38.706Z,74.74
2023-03-13T17:09:38.675Z,74.55
2023-03-13T17:10:38.653Z,73.79
2023-03-13T17:11:38.657Z,73.5
2023-03-13T17:12:38.658Z,73.69
2023-03-13T17:13:38.594Z,73.4
2023-03-13T17:14:38.546Z,72.92
2023-03-13T17:15:38.611Z,73.5
2023-03-13T17:16:38.503Z,73.21
2023-03-13T17:17:38.487Z,73.11
2023-03-13T17:18:38.448Z,73.11
2023-03-13T17:19:38.448Z,73.46
2023-03-13T17:20:38.404Z,73.02
2023-03-13T17:21:38.373Z,73.27
2023-03-13T17:22:38.387Z,73.5
2023-03-13T17:23:38.308Z,73.84
2023-03-13T17:24:38.303Z,73.94
2023-03-13T17:25:38.325Z,74.41
2023-03-13T17:26:38.278Z,74.13
2023-03-13T17:27:38.208Z,74.9
2023-03-13T17:28:38.260Z,75.56
2023-03-13T17:29:38.159Z,75.27
2023-03-13T17:30:38.148Z,75.76
2023-03-13T17:31:38.242Z,76.14
2023-03-13T17:32:38.242Z,76.04
2023-03-13T17:33:38.063Z,76.42
2023-03-13T17:34:38.154Z,77.09
2023-03-13T17:35:38.003Z,77.38
2023-03-13T17:36:37.992Z,77.86
2023-03-13T17:37:37.947Z,78.14
2023-03-13T17:38:38.083Z,78.53
2023-03-13T17:39:37.896Z,78.72
2023-03-13T17:40:39.849Z,79.1
2023-03-13T17:41:37.853Z,79.2
2023-03-13T17:42:37.847Z,79.77
2023-03-13T17:43:37.798Z,79.58
2023-03-13T17:44:37.951Z,79.64
2023-03-13T17:45:37.744Z,79.64
2023-03-13T17:46:37.972Z,80.06
2023-03-13T17:47:37.691Z,79.73
2023-03-13T17:48:37.667Z,80.02
2023-03-13T17:49:37.635Z,80.11
2023-03-13T17:50:37.631Z,79.83
2023-03-13T17:51:37.613Z,79.96
2023-03-13T17:52:37.564Z,79.64
2023-03-13T17:53:37.539Z,79.54
2023-03-13T17:54:37.549Z,79.64
2023-03-13T17:55:37.499Z,79.64
2023-03-13T17:56:37.471Z,79.54
2023-03-13T17:57:37.433Z,80.02
2023-03-13T17:58:37.442Z,80.02
2023-03-13T17:59:37.386Z,80.02
2023-03-13T18:00:37.519Z,79.64
2023-03-13T18:01:37.432Z,79.25
2023-03-13T18:02:37.386Z,79.64
2023-03-13T18:03:37.281Z,79.54
2023-03-13T18:04:37.286Z,79.44
2023-03-13T18:05:37.226Z,79.16
2023-03-13T18:06:37.195Z,79.64
2023-03-13T18:07:37.174Z,79.44
2023-03-13T18:08:37.150Z,79.35
2023-03-13T18:09:37.127Z,79.73
2023-03-13T18:10:37.092Z,79.44
2023-03-13T18:11:37.079Z,79.73
2023-03-13T18:12:37.059Z,79.44
2023-03-13T18:13:39.302Z,79.54
2023-03-13T18:14:36.990Z,79.64
2023-03-13T18:15:36.973Z,79.73
2023-03-13T18:16:37.175Z,79.73
2023-03-13T18:17:36.673Z,79.83
2023-03-13T18:18:36.885Z,79.83
2023-03-13T18:19:36.858Z,79.93
2023-03-13T18:20:36.838Z,80.02
2023-03-13T18:21:36.592Z,80.02
2023-03-13T18:22:36.801Z,79.83
2023-03-13T18:23:36.782Z,80.02
2023-03-13T18:24:36.724Z,79.83
2023-03-13T18:25:36.700Z,79.83
2023-03-13T18:26:36.679Z,80.02
2023-03-13T18:27:36.657Z,79.93
2023-03-13T18:28:36.628Z,79.83
2023-03-13T18:29:36.599Z,79.73
2023-03-13T18:30:36.568Z,80.02
2023-03-13T18:31:36.729Z,80.07
2023-03-13T18:32:36.656Z,80.17
2023-03-13T18:33:36.491Z,80.46
2023-03-13T18:34:36.481Z,80.07
2023-03-13T18:35:36.522Z,80.27
2023-03-13T18:36:36.424Z,79.98
2023-03-13T18:37:36.398Z,79.88
2023-03-13T18:38:36.370Z,80.27
2023-03-13T18:39:36.338Z,80.65
2023-03-13T18:40:36.317Z,80.74
2023-03-13T18:41:36.285Z,80.17
2023-03-13T18:42:36.252Z,80.36
2023-03-13T18:43:36.226Z,80.65
2023-03-13T18:44:36.253Z,80.93
2023-03-13T18:45:36.370Z,81.03
2023-03-13T18:46:36.189Z,81.13
2023-03-13T18:47:36.150Z,81.13
2023-03-13T18:48:36.179Z,81.22
2023-03-13T18:49:36.080Z,81.13
2023-03-13T18:50:35.800Z,81.13
2023-03-13T18:51:36.046Z,81.6
2023-03-13T18:52:35.993Z,81.51
2023-03-13T18:53:35.720Z,81.22
2023-03-13T18:54:35.934Z,81.32
2023-03-13T18:55:35.914Z,81.13
2023-03-13T18:56:35.901Z,81.13
2023-03-13T18:57:35.862Z,81.13
2023-03-13T18:58:35.848Z,81.22
2023-03-13T18:59:35.804Z,81.99
2023-03-13T19:00:35.911Z,81.99
2023-03-13T19:01:35.915Z,81.99
2023-03-13T19:02:35.932Z,81.89
2023-03-13T19:03:35.703Z,81.79
2023-03-13T19:04:35.755Z,82.08
2023-03-13T19:05:35.658Z,81.7
2023-03-13T19:06:35.620Z,81.51
2023-03-13T19:07:35.591Z,82.37
2023-03-13T19:08:35.591Z,81.89
2023-03-13T19:09:47.125Z,81.51
2023-03-13T19:10:35.668Z,82.18
2023-03-13T19:11:35.487Z,82.28
2023-03-13T19:12:35.460Z,82.28
2023-03-13T19:13:35.438Z,82.37
2023-03-13T19:14:35.411Z,81.89
2023-03-13T19:15:35.390Z,81.7
2023-03-13T19:16:35.413Z,81.79
2023-03-13T19:17:35.334Z,81.79
2023-03-13T19:18:35.327Z,82.08
2023-03-13T19:19:35.296Z,81.99
2023-03-13T19:20:35.545Z,81.89
2023-03-13T19:21:35.222Z,82.18
2023-03-13T19:22:35.212Z,81.7
2023-03-13T19:23:35.219Z,81.89
2023-03-13T19:24:35.158Z,81.89
2023-03-13T19:25:35.127Z,81.99
2023-03-13T19:26:35.096Z,81.99
2023-03-13T19:27:35.068Z,82.37
2023-03-13T19:28:35.046Z,81.79
2023-03-13T19:29:35.010Z,81.79
2023-03-13T19:30:34.989Z,81.99
2023-03-13T19:31:35.130Z,82.08
2023-03-13T19:32:35.007Z,82.18
2023-03-13T19:33:34.914Z,82.18
2023-03-13T19:34:34.884Z,81.7
2023-03-13T19:35:34.921Z,81.79
2023-03-13T19:36:36.269Z,81.79
2023-03-13T19:37:34.798Z,81.89
2023-03-13T19:38:34.777Z,81.79
2023-03-13T19:39:34.741Z,81.79
2023-03-13T19:40:34.722Z,81.6
2023-03-13T19:41:34.688Z,81.6
2023-03-13T19:42:34.663Z,81.7
2023-03-13T19:43:34.638Z,81.99
2023-03-13T19:44:34.611Z,81.99
2023-03-13T19:45:34.722Z,81.79
2023-03-13T19:46:34.554Z,82.46
2023-03-13T19:47:34.560Z,82.46
2023-03-13T19:48:34.513Z,82.23
2023-03-13T19:49:34.252Z,81.95
2023-03-13T19:50:34.442Z,82.32
2023-03-13T19:51:34.455Z,81.95
2023-03-13T19:52:34.444Z,82.42
2023-03-13T19:53:34.366Z,81.95
2023-03-13T19:54:34.377Z,82.71
2023-03-13T19:55:34.324Z,83.47
2023-03-13T19:56:34.307Z,83.18
2023-03-13T19:57:34.266Z,83.28
2023-03-13T19:58:34.245Z,83.76
2023-03-13T19:59:34.264Z,83.47
2023-03-13T20:00:34.183Z,83.57
2023-03-13T20:01:34.200Z,83.38
2023-03-13T20:02:34.228Z,83.57
2023-03-13T20:03:34.098Z,83.28
2023-03-13T20:04:34.098Z,83.67
2023-03-13T20:05:34.057Z,84.14
2023-03-13T20:06:34.022Z,83.67
2023-03-13T20:07:33.988Z,84.05
2023-03-13T20:08:34.126Z,84.05
2023-03-13T20:09:35.538Z,83.76
2023-03-13T20:10:33.921Z,83.76
2023-03-13T20:11:33.897Z,83.57
2023-03-13T20:12:33.857Z,83.86
2023-03-13T20:13:33.826Z,83.47
2023-03-13T20:14:33.836Z,83.47
2023-03-13T20:15:33.827Z,83.18
2023-03-13T20:16:36.062Z,83.76
2023-03-13T20:17:33.727Z,84.33
2023-03-13T20:18:33.719Z,84.33
2023-03-13T20:19:33.776Z,84.1
2023-03-13T20:20:33.644Z,84.05
2023-03-13T20:21:33.613Z,84.29
2023-03-13T20:22:33.605Z,84.67
2023-03-13T20:23:33.578Z,84.67
2023-03-13T20:24:33.706Z,84.86
2023-03-13T20:25:33.507Z,84.67
2023-03-13T20:26:33.481Z,85.05
2023-03-13T20:27:33.631Z,84.77
2023-03-13T20:28:33.423Z,84.77
2023-03-13T20:29:33.433Z,84.77
2023-03-13T20:30:33.366Z,84.77
2023-03-13T20:31:33.683Z,84.96
2023-03-13T20:32:33.381Z,84.77
2023-03-13T20:33:33.299Z,84.86
2023-03-13T20:34:33.263Z,85.53
2023-03-13T20:35:33.344Z,85.34
2023-03-13T20:36:33.203Z,86.01
2023-03-13T20:37:33.175Z,85.72
2023-03-13T20:38:33.156Z,86.01
2023-03-13T20:39:33.126Z,86.39
2023-03-13T20:40:33.252Z,85.97
2023-03-13T20:41:33.077Z,86.25
2023-03-13T20:42:33.048Z,86.01
2023-03-13T20:43:33.057Z,86.1
2023-03-13T20:44:33.000Z,86.06
2023-03-13T20:45:32.979Z,86.25
2023-03-13T20:46:33.099Z,86.06
2023-03-13T20:47:32.949Z,86.25
2023-03-13T20:48:32.905Z,86.35
2023-03-13T20:49:32.850Z,86.44
2023-03-13T20:50:32.832Z,86.63
2023-03-13T20:51:32.797Z,86.82
2023-03-13T20:52:32.536Z,86.82
2023-03-13T20:53:32.735Z,87.21
2023-03-13T20:54:32.715Z,86.92
2023-03-13T20:55:32.446Z,86.63
2023-03-13T20:56:32.754Z,86.73
2023-03-13T20:57:32.638Z,87.02
2023-03-13T20:58:32.605Z,87.06
2023-03-13T20:59:32.592Z,87.06
2023-03-13T21:00:32.549Z,86.54
2023-03-13T21:01:34.646Z,86.39
2023-03-13T21:02:32.493Z,86.49
2023-03-13T21:03:32.466Z,86.16
2023-03-13T21:04:32.498Z,86.35
2023-03-13T21:05:32.405Z,86.44
2023-03-13T21:06:32.385Z,86.06
2023-03-13T21:07:32.349Z,86.92
2023-03-13T21:08:32.324Z,86.73
2023-03-13T21:09:32.294Z,86.35
2023-03-13T21:10:32.269Z,86.06
2023-03-13T21:11:32.278Z,86.92
2023-03-13T21:12:32.261Z,86.73
2023-03-13T21:13:32.183Z,87.11
2023-03-13T21:14:32.183Z,87.11
2023-03-13T21:15:32.138Z,86.82
2023-03-13T21:16:32.174Z,86.63
2023-03-13T21:17:32.070Z,86.73
2023-03-13T21:18:32.099Z,86.35
2023-03-13T21:19:32.020Z,87.11
2023-03-13T21:20:32.095Z,87.11
2023-03-13T21:21:31.963Z,87.11
2023-03-13T21:22:31.936Z,86.73
2023-03-13T21:23:31.925Z,86.63
2023-03-13T21:24:31.884Z,86.82
2023-03-13T21:25:31.884Z,86.82
2023-03-13T21:26:31.841Z,86.82
2023-03-13T21:27:31.823Z,86.44
2023-03-13T21:28:31.835Z,86.35
2023-03-13T21:29:31.745Z,86.54
2023-03-13T21:30:31.742Z,86.73
2023-03-13T21:31:31.905Z,86.82
2023-03-13T21:32:31.519Z,87.02
2023-03-13T21:33:31.634Z,86.82
2023-03-13T21:34:31.610Z,86.63
2023-03-13T21:35:31.634Z,86.82
2023-03-13T21:36:31.558Z,86.44
2023-03-13T21:37:31.516Z,86.44
2023-03-13T21:38:31.495Z,86.63
2023-03-13T21:39:31.469Z,87.02
2023-03-13T21:40:31.448Z,87.02
2023-03-13T21:41:31.410Z,86.82
2023-03-13T21:42:31.379Z,86.63
2023-03-13T21:43:31.361Z,86.92
2023-03-13T21:44:31.402Z,87.4
2023-03-13T21:45:31.304Z,87.3
2023-03-13T21:46:31.399Z,86.73
2023-03-13T21:47:31.252Z,86.73
2023-03-13T21:48:31.210Z,87.3
2023-03-13T21:49:31.213Z,86.44
2023-03-13T21:50:31.166Z,87.11
2023-03-13T21:51:31.134Z,87.11
2023-03-13T21:52:31.117Z,87.07
2023-03-13T21:53:31.102Z,87.59
2023-03-13T21:54:31.046Z,87.3
2023-03-13T21:55:31.025Z,87.49
2023-03-13T21:56:30.991Z,87.3
2023-03-13T21:57:30.968Z,87.4
2023-03-13T21:58:30.942Z,87.49
2023-03-13T21:59:30.918Z,87.59
2023-03-13T22:00:32.801Z,87.78
2023-03-13T22:01:30.868Z,87.68
2023-03-13T22:02:30.819Z,87.49
2023-03-13T22:03:30.999Z,87.68
2023-03-13T22:04:30.765Z,87.68
2023-03-13T22:05:30.741Z,87.45
2023-03-13T22:06:30.712Z,87.54
2023-03-13T22:07:30.693Z,88.21
2023-03-13T22:08:30.657Z,88.21
2023-03-13T22:09:30.629Z,88.21
2023-03-13T22:10:30.598Z,88.21
2023-03-13T22:11:30.586Z,88.5
2023-03-13T22:12:30.542Z,87.74
2023-03-13T22:13:30.521Z,88.21
2023-03-13T22:14:30.508Z,87.93
2023-03-13T22:15:30.461Z,87.83
2023-03-13T22:16:30.576Z,88.02
2023-03-13T22:17:30.412Z,88.59
2023-03-13T22:18:30.375Z,88.5
2023-03-13T22:19:30.357Z,88.78
2023-03-13T22:20:30.345Z,88.5
2023-03-13T22:21:30.292Z,88.59
2023-03-13T22:22:30.268Z,88.88
2023-03-13T22:23:30.232Z,88.69
2023-03-13T22:24:30.207Z,88.69
2023-03-13T22:25:30.202Z,88.88
2023-03-13T22:26:30.152Z,88.88
2023-03-13T22:27:30.130Z,88.78
2023-03-13T22:28:30.107Z,88.78
2023-03-13T22:29:32.929Z,88.59
2023-03-13T22:30:30.049Z,88.78
2023-03-13T22:31:30.056Z,88.59
2023-03-13T22:32:30.284Z,89.26
2023-03-13T22:33:30.010Z,89.36
2023-03-13T22:34:29.928Z,89.45
2023-03-13T22:35:29.914Z,89.45
2023-03-13T22:36:29.876Z,89.26
2023-03-13T22:37:29.842Z,89.07
2023-03-13T22:38:29.816Z,89.36
2023-03-13T22:39:29.787Z,89.36
2023-03-13T22:40:29.762Z,89.17
2023-03-13T22:41:29.728Z,89.17
2023-03-13T22:42:29.721Z,89.54
2023-03-13T22:43:29.669Z,89.64
2023-03-13T22:44:29.656Z,89.36
2023-03-13T22:45:29.614Z,89.17
2023-03-13T22:46:29.593Z,89.17
2023-03-13T22:47:29.559Z,89.17
2023-03-13T22:48:29.603Z,89.36
2023-03-13T22:49:29.504Z,89.26
2023-03-13T22:50:29.489Z,89.26
2023-03-13T22:51:29.461Z,89.26
2023-03-13T22:52:29.421Z,89.45
2023-03-13T22:53:29.400Z,89.17
2023-03-13T22:54:29.368Z,88.98
2023-03-13T22:55:29.337Z,89.07
2023-03-13T22:56:30.265Z,88.98
2023-03-13T22:57:29.408Z,88.78
2023-03-13T22:58:29.364Z,88.5
2023-03-13T22:59:29.222Z,88.69
2023-03-13T23:00:29.207Z,88.98
2023-03-13T23:01:29.294Z,88.88
2023-03-13T23:02:29.146Z,88.5
2023-03-13T23:03:29.120Z,88.98
2023-03-13T23:04:29.156Z,88.88
2023-03-13T23:05:29.065Z,88.69
2023-03-13T23:06:29.048Z,88.98
2023-03-13T23:07:29.010Z,88.88
2023-03-13T23:08:28.976Z,88.69
2023-03-13T23:09:29.095Z,88.88
2023-03-13T23:10:28.920Z,88.88
2023-03-13T23:11:28.898Z,88.88
2023-03-13T23:12:28.863Z,88.88
2023-03-13T23:13:29.105Z,88.78
2023-03-13T23:14:28.864Z,88.78
2023-03-13T23:15:37.854Z,88.88
2023-03-13T23:16:28.758Z,88.59
2023-03-13T23:17:28.732Z,88.88
2023-03-13T23:18:28.731Z,88.78
2023-03-13T23:19:28.671Z,88.78
2023-03-13T23:20:28.702Z,88.69
2023-03-13T23:21:28.610Z,89.07
2023-03-13T23:22:28.586Z,88.69
2023-03-13T23:23:28.555Z,88.88
2023-03-13T23:24:28.529Z,88.69
2023-03-13T23:25:28.532Z,89.26
2023-03-13T23:26:28.471Z,89.36
2023-03-13T23:27:28.449Z,88.88
2023-03-13T23:28:28.413Z,89.17
2023-03-13T23:29:28.399Z,89.45
2023-03-13T23:30:28.412Z,89.07
2023-03-13T23:31:28.338Z,89.07
2023-03-13T23:32:28.346Z,89.26
2023-03-13T23:33:28.275Z,89.36
2023-03-13T23:34:28.247Z,89.79
2023-03-13T23:35:28.221Z,89.89
2023-03-13T23:36:28.233Z,90.03
2023-03-13T23:37:28.162Z,89.83
2023-03-13T23:38:28.134Z,89.89
2023-03-13T23:39:28.108Z,89.93
2023-03-13T23:40:28.088Z,89.6
2023-03-13T23:41:28.063Z,89.79
2023-03-13T23:42:28.015Z,89.98
2023-03-13T23:43:27.993Z,89.79
2023-03-13T23:44:27.957Z,89.54
2023-03-13T23:45:27.941Z,90.22
2023-03-13T23:46:27.917Z,89.83
2023-03-13T23:47:27.885Z,89.54
2023-03-13T23:48:27.844Z,89.17
2023-03-13T23:49:27.823Z,89.36
2023-03-13T23:50:27.795Z,89.26
2023-03-13T23:51:27.764Z,89.26
2023-03-13T23:52:27.794Z,88.88
2023-03-13T23:53:27.718Z,88.69
2023-03-13T23:54:27.680Z,89.07
2023-03-13T23:55:27.407Z,88.21
2023-03-13T23:56:27.671Z,88.69
2023-03-13T23:57:27.592Z,88.12
2023-03-13T23:58:27.568Z,88.69
2023-03-13T23:59:27.683Z,88.78
